createdAt,value
2023-02-04T00:00:34.555Z,7.30
2023-02-04T00:03:01.532Z,7.30
2023-02-04T00:05:28.291Z,7.20
2023-02-04T00:07:55.045Z,7.30
2023-02-04T00:10:21.753Z,7.20
2023-02-04T00:12:48.511Z,7.20
2023-02-04T00:15:15.211Z,7.20
2023-02-04T00:17:41.958Z,7.20
2023-02-04T00:20:08.897Z,7.20
2023-02-04T00:22:35.736Z,7.20
2023-02-04T00:25:02.490Z,7.30
2023-02-04T00:27:29.376Z,7.20
2023-02-04T00:29:57.452Z,7.30
2023-02-04T00:32:24.474Z,7.30
2023-02-04T00:34:51.324Z,7.30
2023-02-04T00:37:18.165Z,7.20
2023-02-04T00:39:44.863Z,7.30
2023-02-04T00:42:11.706Z,7.30
2023-02-04T00:44:38.399Z,7.30
2023-02-04T00:47:05.236Z,7.20
2023-02-04T00:49:33.656Z,7.20
2023-02-04T00:52:00.481Z,7.40
2023-02-04T00:54:27.375Z,7.40
2023-02-04T00:56:54.159Z,7.20
2023-02-04T00:59:20.895Z,7.30
2023-02-04T01:01:47.646Z,7.30
2023-02-04T01:04:15.043Z,7.30
2023-02-04T01:06:41.815Z,7.40
2023-02-04T01:09:09.352Z,7.40
2023-02-04T01:11:36.651Z,7.40
2023-02-04T01:14:03.400Z,7.30
2023-02-04T01:16:30.209Z,7.30
2023-02-04T01:18:56.946Z,7.30
2023-02-04T01:21:25.039Z,7.40
2023-02-04T01:23:52.366Z,7.40
2023-02-04T01:26:19.392Z,7.40
2023-02-04T01:28:46.346Z,7.40
2023-02-04T01:31:13.437Z,7.30
2023-02-04T01:33:40.966Z,7.30
2023-02-04T01:36:08.169Z,7.40
2023-02-04T01:38:35.774Z,7.40
2023-02-04T01:41:04.093Z,7.30
2023-02-04T01:43:31.322Z,7.50
2023-02-04T01:45:59.062Z,7.50
2023-02-04T01:48:25.980Z,7.50
2023-02-04T01:50:57.058Z,7.40
2023-02-04T01:53:25.065Z,7.40
2023-02-04T01:55:52.331Z,7.40
2023-02-04T01:58:19.545Z,7.30
2023-02-04T02:00:46.445Z,7.30
2023-02-04T02:03:13.568Z,7.30
2023-02-04T02:05:48.354Z,7.30
2023-02-04T02:08:16.083Z,7.30
2023-02-04T02:10:44.547Z,7.30
2023-02-04T02:13:12.896Z,7.30
2023-02-04T02:15:40.145Z,7.20
2023-02-04T02:18:07.328Z,7.20
2023-02-04T02:20:35.572Z,7.20
2023-02-04T02:23:17.723Z,7.20
2023-02-04T02:25:45.154Z,7.20
2023-02-04T02:28:13.903Z,7.30
2023-02-04T02:30:41.634Z,7.20
2023-02-04T02:33:08.646Z,7.20
2023-02-04T02:35:35.469Z,7.10
2023-02-04T02:38:02.222Z,7.20
2023-02-04T02:40:29.472Z,7.10
2023-02-04T02:42:56.348Z,7.20
2023-02-04T02:45:25.236Z,7.20
2023-02-04T02:47:52.961Z,7.10
2023-02-04T02:50:21.672Z,7.20
2023-02-04T02:52:48.932Z,7.20
2023-02-04T02:55:17.364Z,7.00
2023-02-04T02:57:49.024Z,7.20
2023-02-04T03:00:17.543Z,7.20
2023-02-04T03:02:45.605Z,7.20
2023-02-04T03:05:13.177Z,7.10
2023-02-04T03:07:42.575Z,7.10
2023-02-04T03:10:09.479Z,7.20
2023-02-04T03:12:38.485Z,7.10
2023-02-04T03:15:05.769Z,7.20
2023-02-04T03:17:32.501Z,7.00
2023-02-04T03:19:59.444Z,7.10
2023-02-04T03:22:26.272Z,7.10
2023-02-04T03:24:53.100Z,7.20
2023-02-04T03:27:19.983Z,7.10
2023-02-04T03:29:46.702Z,7.00
2023-02-04T03:32:13.458Z,6.90
2023-02-04T03:34:40.144Z,6.90
2023-02-04T03:37:06.985Z,6.80
2023-02-04T03:39:33.777Z,7.00
2023-02-04T03:42:00.612Z,6.80
2023-02-04T03:44:27.334Z,6.80
2023-02-04T03:46:55.522Z,6.80
2023-02-04T03:49:22.945Z,6.60
2023-02-04T03:51:49.706Z,6.50
2023-02-04T03:54:16.540Z,6.50
2023-02-04T03:56:43.251Z,6.40
2023-02-04T03:59:10.021Z,6.30
2023-02-04T04:01:36.854Z,6.30
2023-02-04T04:04:03.610Z,6.30
2023-02-04T04:06:31.502Z,6.20
2023-02-04T04:08:58.287Z,6.20
2023-02-04T04:11:25.023Z,6.10
2023-02-04T04:13:52.102Z,6.00
2023-02-04T04:16:20.687Z,6.10
2023-02-04T04:18:47.499Z,6.10
2023-02-04T04:21:14.223Z,6.30
2023-02-04T04:23:40.995Z,6.30
2023-02-04T04:26:07.836Z,6.30
2023-02-04T04:28:34.727Z,6.30
2023-02-04T04:31:01.587Z,6.30
2023-02-04T04:33:28.380Z,6.40
2023-02-04T04:35:55.119Z,6.20
2023-02-04T04:38:21.904Z,6.30
2023-02-04T04:40:48.820Z,6.30
2023-02-04T04:43:15.600Z,6.30
2023-02-04T04:45:42.290Z,6.40
2023-02-04T04:48:09.001Z,6.40
2023-02-04T04:50:36.026Z,6.50
2023-02-04T04:53:02.839Z,6.40
2023-02-04T04:55:29.630Z,6.30
2023-02-04T04:57:56.376Z,6.30
2023-02-04T05:00:23.197Z,6.10
2023-02-04T05:02:49.938Z,6.00
2023-02-04T05:05:16.766Z,5.90
2023-02-04T05:07:43.522Z,6.00
2023-02-04T05:10:10.475Z,5.90
2023-02-04T05:12:37.426Z,5.90
2023-02-04T05:15:04.457Z,5.90
2023-02-04T05:17:31.192Z,6.00
2023-02-04T05:19:57.973Z,5.80
2023-02-04T05:22:24.766Z,5.70
2023-02-04T05:24:51.549Z,5.70
2023-02-04T05:27:18.364Z,5.70
2023-02-04T05:29:45.160Z,5.70
2023-02-04T05:32:12.242Z,5.60
2023-02-04T05:34:39.982Z,5.60
2023-02-04T05:37:06.850Z,5.60
2023-02-04T05:39:33.670Z,5.50
2023-02-04T05:42:00.412Z,5.50
2023-02-04T05:44:27.590Z,5.50
2023-02-04T05:46:54.338Z,5.40
2023-02-04T05:49:21.123Z,5.40
2023-02-04T05:51:47.850Z,5.40
2023-02-04T05:54:19.378Z,5.50
2023-02-04T05:56:47.020Z,5.50
2023-02-04T05:59:13.748Z,5.50
2023-02-04T06:01:40.546Z,5.40
2023-02-04T06:04:07.346Z,5.30
2023-02-04T06:06:34.335Z,5.20
2023-02-04T06:09:01.169Z,5.30
2023-02-04T06:11:27.992Z,5.40
2023-02-04T06:13:54.825Z,5.30
2023-02-04T06:16:21.668Z,5.20
2023-02-04T06:18:48.440Z,5.10
2023-02-04T06:21:15.239Z,5.40
2023-02-04T06:23:41.926Z,5.20
2023-02-04T06:26:08.671Z,5.10
2023-02-04T06:28:35.378Z,5.30
2023-02-04T06:31:02.220Z,5.40
2023-02-04T06:33:29.165Z,5.40
2023-02-04T06:35:55.876Z,5.20
2023-02-04T06:38:22.553Z,5.20
2023-02-04T06:40:49.506Z,5.40
2023-02-04T06:43:16.424Z,5.30
2023-02-04T06:45:43.363Z,5.20
2023-02-04T06:48:10.234Z,5.10
2023-02-04T06:50:36.964Z,5.00
2023-02-04T06:53:03.708Z,5.00
2023-02-04T06:55:30.508Z,5.10
2023-02-04T06:57:57.285Z,5.00
2023-02-04T07:00:24.262Z,5.20
2023-02-04T07:02:51.109Z,5.10
2023-02-04T07:05:17.963Z,5.10
2023-02-04T07:07:44.668Z,5.00
2023-02-04T07:10:11.368Z,5.00
2023-02-04T07:12:38.118Z,4.90
2023-02-04T07:15:05.010Z,4.80
2023-02-04T07:17:31.760Z,4.90
2023-02-04T07:19:58.468Z,4.80
2023-02-04T07:22:25.233Z,4.80
2023-02-04T07:24:51.980Z,4.80
2023-02-04T07:27:18.703Z,4.90
2023-02-04T07:29:45.539Z,4.80
2023-02-04T07:32:12.350Z,4.80
2023-02-04T07:34:39.083Z,5.00
2023-02-04T07:37:05.803Z,4.90
2023-02-04T07:39:32.525Z,5.10
2023-02-04T07:41:59.232Z,5.10
2023-02-04T07:44:33.309Z,5.10
2023-02-04T07:47:00.862Z,5.20
2023-02-04T07:49:28.775Z,5.40
2023-02-04T07:51:56.081Z,5.40
2023-02-04T07:54:22.776Z,5.50
2023-02-04T07:56:49.615Z,5.80
2023-02-04T07:59:16.315Z,5.70
2023-02-04T08:01:43.056Z,5.80
2023-02-04T08:04:10.232Z,5.80
2023-02-04T08:06:36.993Z,5.90
2023-02-04T08:09:04.042Z,5.80
2023-02-04T08:11:31.399Z,5.80
2023-02-04T08:13:58.110Z,5.90
2023-02-04T08:16:24.851Z,5.90
2023-02-04T08:18:51.607Z,6.00
2023-02-04T08:21:19.460Z,5.90
2023-02-04T08:23:46.336Z,5.80
2023-02-04T08:26:13.119Z,5.70
2023-02-04T08:28:39.809Z,5.70
2023-02-04T08:31:07.108Z,5.60
2023-02-04T08:33:34.012Z,5.50
2023-02-04T08:36:00.817Z,5.60
2023-02-04T08:38:27.786Z,5.90
2023-02-04T08:40:54.675Z,6.00
2023-02-04T08:43:21.408Z,6.20
2023-02-04T08:45:48.136Z,6.50
2023-02-04T08:48:14.932Z,6.60
2023-02-04T08:50:41.736Z,6.80
2023-02-04T08:53:08.523Z,6.90
2023-02-04T08:55:35.236Z,7.00
2023-02-04T08:58:02.990Z,7.00
2023-02-04T09:00:30.427Z,7.10
2023-02-04T09:02:57.609Z,7.20
2023-02-04T09:05:24.381Z,7.20
2023-02-04T09:07:51.275Z,7.50
2023-02-04T09:10:18.277Z,7.50
2023-02-04T09:12:45.037Z,7.60
2023-02-04T09:15:12.080Z,7.60
2023-02-04T09:17:39.078Z,7.60
2023-02-04T09:20:06.568Z,7.60
2023-02-04T09:22:33.435Z,7.70
2023-02-04T09:25:00.159Z,7.50
2023-02-04T09:27:26.998Z,7.50
2023-02-04T09:29:53.696Z,7.60
2023-02-04T09:32:20.432Z,7.70
2023-02-04T09:34:47.232Z,7.70
2023-02-04T09:37:14.139Z,7.70
2023-02-04T09:39:40.895Z,7.70
2023-02-04T09:42:09.329Z,7.90
2023-02-04T09:44:36.030Z,8.00
2023-02-04T09:47:02.852Z,8.30
2023-02-04T09:49:29.856Z,8.50
2023-02-04T09:51:56.966Z,8.80
2023-02-04T09:54:24.864Z,8.90
2023-02-04T09:56:52.546Z,9.00
2023-02-04T09:59:20.875Z,9.00
2023-02-04T10:01:51.707Z,9.10
2023-02-04T10:04:23.128Z,9.00
2023-02-04T10:06:50.051Z,9.10
2023-02-04T10:09:17.213Z,9.50
2023-02-04T10:11:44.911Z,9.70
2023-02-04T10:14:29.767Z,9.40
2023-02-04T10:16:59.477Z,9.50
2023-02-04T10:19:28.577Z,9.80
2023-02-04T10:21:55.423Z,9.70
2023-02-04T10:24:26.582Z,9.70
2023-02-04T10:26:53.615Z,9.70
2023-02-04T10:29:22.148Z,9.40
2023-02-04T10:31:50.082Z,9.40
2023-02-04T10:34:24.467Z,9.30
2023-02-04T10:36:53.023Z,9.30
2023-02-04T10:39:19.772Z,8.70
2023-02-04T10:41:50.360Z,8.50
2023-02-04T10:44:25.181Z,8.50
2023-02-04T10:47:28.937Z,8.60
2023-02-04T10:50:10.524Z,8.10
2023-02-04T10:52:39.315Z,8.10
2023-02-04T10:55:07.731Z,8.00
2023-02-04T10:57:38.160Z,8.00
2023-02-04T11:00:06.677Z,8.20
2023-02-04T11:02:48.510Z,8.70
2023-02-04T11:05:17.282Z,9.20
2023-02-04T11:07:45.124Z,10.10
2023-02-04T11:10:16.581Z,10.50
2023-02-04T11:13:06.543Z,9.80
2023-02-04T11:15:38.771Z,9.50
2023-02-04T11:18:07.407Z,9.00
2023-02-04T11:20:36.231Z,8.70
2023-02-04T11:23:21.835Z,8.30
2023-02-04T11:25:48.770Z,8.00
2023-02-04T11:28:16.480Z,7.60
2023-02-04T11:30:43.420Z,7.50
2023-02-04T11:33:24.107Z,7.30
2023-02-04T11:36:00.374Z,7.10
2023-02-04T11:38:28.425Z,7.30
2023-02-04T11:40:56.078Z,7.30
2023-02-04T11:43:22.974Z,7.40
2023-02-04T11:46:00.290Z,7.00
2023-02-04T11:48:27.171Z,7.30
2023-02-04T11:50:57.670Z,8.30
2023-02-04T11:53:25.487Z,9.00
2023-02-04T11:55:52.291Z,9.50
2023-02-04T11:58:20.500Z,10.20
2023-02-04T12:00:47.286Z,10.80
2023-02-04T12:03:23.585Z,11.30
2023-02-04T12:05:50.869Z,11.50
2023-02-04T12:08:23.829Z,11.80
2023-02-04T12:11:01.664Z,12.00
2023-02-04T12:13:30.650Z,11.60
2023-02-04T12:16:02.165Z,11.30
2023-02-04T12:18:32.738Z,11.30
2023-02-04T12:21:00.022Z,11.40
2023-02-04T12:23:27.724Z,10.70
2023-02-04T12:25:54.557Z,10.20
2023-02-04T12:28:21.731Z,9.90
2023-02-04T12:30:48.600Z,9.40
2023-02-04T12:33:15.362Z,9.50
2023-02-04T12:35:42.197Z,9.10
2023-02-04T12:38:10.244Z,9.30
2023-02-04T12:40:37.267Z,11.20
2023-02-04T12:43:04.331Z,12.40
2023-02-04T12:45:31.613Z,12.90
2023-02-04T12:47:58.668Z,14.30
2023-02-04T12:50:26.761Z,13.30
2023-02-04T12:52:54.794Z,13.50
2023-02-04T12:55:22.155Z,13.90
2023-02-04T12:57:48.952Z,15.60
2023-02-04T13:00:16.564Z,15.30
2023-02-04T13:02:43.579Z,14.00
2023-02-04T13:05:10.338Z,13.60
2023-02-04T13:07:37.335Z,13.60
2023-02-04T13:10:04.266Z,13.40
2023-02-04T13:12:31.055Z,13.60
2023-02-04T13:14:57.789Z,13.70
2023-02-04T13:17:24.570Z,14.30
2023-02-04T13:19:51.250Z,15.20
2023-02-04T13:22:18.076Z,14.70
2023-02-04T13:24:45.117Z,14.80
2023-02-04T13:27:11.947Z,14.80
2023-02-04T13:29:38.701Z,15.40
2023-02-04T13:32:05.568Z,14.90
2023-02-04T13:34:32.311Z,14.10
2023-02-04T13:36:59.058Z,13.10
2023-02-04T13:39:25.858Z,11.60
2023-02-04T13:41:52.585Z,10.60
2023-02-04T13:44:19.278Z,10.40
2023-02-04T13:46:46.141Z,10.40
2023-02-04T13:49:12.844Z,11.00
2023-02-04T13:51:39.672Z,11.40
2023-02-04T13:54:06.406Z,12.20
2023-02-04T13:56:33.370Z,12.10
2023-02-04T13:59:00.039Z,12.20
2023-02-04T14:01:26.778Z,12.50
2023-02-04T14:03:53.482Z,12.40
2023-02-04T14:06:21.643Z,11.70
2023-02-04T14:08:48.437Z,11.20
2023-02-04T14:11:15.389Z,10.90
2023-02-04T14:13:42.055Z,10.50
2023-02-04T14:16:09.395Z,9.70
2023-02-04T14:18:36.153Z,9.30
2023-02-04T14:21:02.957Z,9.00
2023-02-04T14:23:29.775Z,8.60
2023-02-04T14:25:56.663Z,8.20
2023-02-04T14:28:23.447Z,8.00
2023-02-04T14:30:50.595Z,8.00
2023-02-04T14:33:18.202Z,7.90
2023-02-04T14:35:44.991Z,8.00
2023-02-04T14:38:12.299Z,8.00
2023-02-04T14:40:39.110Z,7.90
2023-02-04T14:43:07.242Z,8.10
2023-02-04T14:45:34.170Z,8.20
2023-02-04T14:48:01.397Z,8.60
2023-02-04T14:50:28.786Z,8.70
2023-02-04T14:52:56.927Z,8.60
2023-02-04T14:55:24.498Z,8.70
2023-02-04T14:57:51.259Z,8.70
2023-02-04T15:00:18.520Z,8.30
2023-02-04T15:02:45.490Z,8.10
2023-02-04T15:05:12.348Z,7.90
2023-02-04T15:07:39.308Z,7.80
2023-02-04T15:10:06.299Z,8.10
2023-02-04T15:12:33.029Z,7.80
2023-02-04T15:14:59.739Z,7.70
2023-02-04T15:17:26.435Z,7.60
2023-02-04T15:19:53.202Z,7.50
2023-02-04T15:22:19.905Z,7.40
2023-02-04T15:24:46.787Z,7.10
2023-02-04T15:27:13.556Z,7.10
2023-02-04T15:29:40.334Z,6.90
2023-02-04T15:32:07.068Z,6.80
2023-02-04T15:34:34.445Z,6.80
2023-02-04T15:37:01.229Z,6.70
2023-02-04T15:39:28.089Z,6.50
2023-02-04T15:41:54.811Z,6.50
2023-02-04T15:44:21.657Z,6.50
2023-02-04T15:46:49.861Z,6.60
2023-02-04T15:49:16.617Z,6.50
2023-02-04T15:51:43.371Z,6.70
2023-02-04T15:54:10.190Z,6.60
2023-02-04T15:56:36.958Z,6.60
2023-02-04T15:59:03.751Z,6.40
2023-02-04T16:01:30.495Z,6.20
2023-02-04T16:03:57.737Z,6.10
2023-02-04T16:06:24.495Z,6.10
2023-02-04T16:08:51.973Z,6.00
2023-02-04T16:11:18.748Z,5.80
2023-02-04T16:13:45.502Z,5.70
2023-02-04T16:16:12.264Z,5.60
2023-02-04T16:18:39.122Z,5.60
2023-02-04T16:21:05.936Z,5.40
2023-02-04T16:23:32.747Z,5.40
2023-02-04T16:25:59.443Z,5.30
2023-02-04T16:28:26.195Z,5.20
2023-02-04T16:30:52.982Z,5.00
2023-02-04T16:33:19.770Z,4.90
2023-02-04T16:35:59.971Z,4.80
2023-02-04T16:38:27.171Z,4.60
2023-02-04T16:40:53.933Z,4.50
2023-02-04T16:43:21.000Z,4.30
2023-02-04T16:45:47.772Z,4.20
2023-02-04T16:48:14.469Z,4.10
2023-02-04T16:50:41.219Z,4.20
2023-02-04T16:53:10.458Z,4.10
2023-02-04T16:55:37.286Z,4.00
2023-02-04T16:58:05.130Z,3.90
2023-02-04T17:00:31.874Z,3.80
2023-02-04T17:02:58.844Z,3.70
2023-02-04T17:05:25.614Z,3.60
2023-02-04T17:07:52.424Z,3.50
2023-02-04T17:10:39.167Z,3.40
2023-02-04T17:13:05.874Z,3.50
2023-02-04T17:15:32.879Z,3.40
2023-02-04T17:17:59.859Z,3.30
2023-02-04T17:20:26.623Z,3.20
2023-02-04T17:22:53.382Z,3.10
2023-02-04T17:25:20.133Z,3.10
2023-02-04T17:27:50.406Z,3.20
2023-02-04T17:30:17.945Z,3.20
2023-02-04T17:32:45.568Z,3.20
2023-02-04T17:35:12.416Z,3.00
2023-02-04T17:37:39.088Z,2.80
2023-02-04T17:40:06.393Z,2.70
2023-02-04T17:42:33.151Z,2.60
2023-02-04T17:44:59.945Z,2.60
2023-02-04T17:47:26.616Z,2.80
2023-02-04T17:49:53.766Z,2.80
2023-02-04T17:52:20.846Z,2.60
2023-02-04T17:54:47.572Z,2.50
2023-02-04T17:57:18.979Z,2.50
2023-02-04T17:59:46.068Z,2.30
2023-02-04T18:02:30.070Z,2.20
2023-02-04T18:05:00.837Z,2.10
2023-02-04T18:07:27.787Z,2.00
2023-02-04T18:10:01.812Z,1.90
2023-02-04T18:12:28.655Z,2.00
2023-02-04T18:14:55.349Z,1.90
2023-02-04T18:17:23.511Z,1.90
2023-02-04T18:19:50.183Z,1.80
2023-02-04T18:22:18.018Z,1.80
2023-02-04T18:24:48.269Z,1.70
2023-02-04T18:27:19.610Z,1.80
2023-02-04T18:29:50.838Z,1.80
2023-02-04T18:32:25.686Z,1.70
2023-02-04T18:34:53.888Z,1.60
2023-02-04T18:37:26.706Z,1.60
2023-02-04T18:39:57.671Z,1.50
2023-02-04T18:42:25.699Z,1.40
2023-02-04T18:44:56.772Z,1.50
2023-02-04T18:47:33.555Z,1.40
2023-02-04T18:50:01.064Z,1.30
2023-02-04T18:52:35.727Z,1.40
2023-02-04T18:55:03.404Z,1.60
2023-02-04T18:57:39.746Z,1.50
2023-02-04T19:00:09.262Z,1.40
2023-02-04T19:02:37.531Z,1.20
2023-02-04T19:05:13.089Z,1.10
2023-02-04T19:07:40.500Z,1.10
2023-02-04T19:10:39.511Z,1.10
2023-02-04T19:13:15.712Z,1.10
2023-02-04T19:15:42.682Z,1.10
2023-02-04T19:18:22.393Z,1.20
2023-02-04T19:20:49.822Z,1.10
2023-02-04T19:23:18.943Z,1.20
2023-02-04T19:25:47.138Z,1.20
2023-02-04T19:28:14.203Z,1.20
2023-02-04T19:30:45.321Z,1.10
2023-02-04T19:33:40.122Z,1.20
2023-02-04T19:36:15.023Z,1.20
2023-02-04T19:38:45.121Z,1.20
2023-02-04T19:41:24.851Z,1.20
2023-02-04T19:43:52.615Z,1.10
2023-02-04T19:46:26.740Z,1.10
2023-02-04T19:48:53.647Z,1.00
2023-02-04T19:51:26.343Z,1.00
2023-02-04T19:53:59.254Z,1.00
2023-02-04T19:56:29.369Z,0.90
2023-02-04T19:58:57.546Z,0.80
2023-02-04T20:01:24.451Z,0.80
2023-02-04T20:03:51.272Z,0.80
2023-02-04T20:06:26.400Z,0.80
2023-02-04T20:09:05.001Z,0.70
2023-02-04T20:11:32.977Z,0.80
2023-02-04T20:14:15.469Z,0.90
2023-02-04T20:16:51.640Z,0.80
2023-02-04T20:19:20.759Z,0.70
2023-02-04T20:21:56.544Z,0.60
2023-02-04T20:24:23.253Z,0.60
2023-02-04T20:26:51.414Z,0.80
2023-02-04T20:29:21.290Z,0.70
2023-02-04T20:31:48.390Z,0.60
2023-02-04T20:34:17.904Z,0.50
2023-02-04T20:36:46.031Z,0.60
2023-02-04T20:39:12.747Z,0.60
2023-02-04T20:41:39.741Z,0.80
2023-02-04T20:44:29.876Z,0.80
2023-02-04T20:47:13.578Z,0.90
2023-02-04T20:49:40.987Z,0.70
2023-02-04T20:52:27.662Z,0.70
2023-02-04T20:54:55.951Z,0.70
2023-02-04T20:57:22.711Z,0.80
2023-02-04T20:59:49.772Z,0.80
2023-02-04T21:02:17.967Z,1.00
2023-02-04T21:04:51.886Z,1.20
2023-02-04T21:07:20.216Z,1.30
2023-02-04T21:09:48.126Z,1.50
2023-02-04T21:12:15.116Z,1.40
2023-02-04T21:14:41.904Z,1.30
2023-02-04T21:17:08.694Z,1.30
2023-02-04T21:19:35.495Z,1.20
2023-02-04T21:22:02.350Z,1.20
2023-02-04T21:24:31.799Z,1.10
2023-02-04T21:26:58.621Z,1.20
2023-02-04T21:29:26.085Z,1.30
2023-02-04T21:31:54.465Z,1.40
2023-02-04T21:34:21.799Z,1.40
2023-02-04T21:36:48.651Z,1.50
2023-02-04T21:39:15.432Z,1.60
2023-02-04T21:41:42.390Z,1.60
2023-02-04T21:44:09.171Z,1.60
2023-02-04T21:46:36.011Z,1.60
2023-02-04T21:49:03.984Z,1.80
2023-02-04T21:51:30.847Z,1.90
2023-02-04T21:53:57.750Z,1.90
2023-02-04T21:56:24.673Z,1.90
2023-02-04T21:58:52.421Z,1.90
2023-02-04T22:01:19.226Z,1.90
2023-02-04T22:03:46.021Z,1.90
2023-02-04T22:06:12.784Z,1.90
2023-02-04T22:08:39.572Z,2.00
2023-02-04T22:11:06.291Z,1.90
2023-02-04T22:13:51.666Z,1.90
2023-02-04T22:16:18.612Z,1.90
2023-02-04T22:18:45.553Z,1.90
2023-02-04T22:21:12.457Z,1.90
2023-02-04T22:23:40.301Z,2.00
2023-02-04T22:26:07.120Z,2.00
2023-02-04T22:28:33.967Z,2.10
2023-02-04T22:31:00.997Z,2.20
2023-02-04T22:33:27.763Z,2.40
2023-02-04T22:35:54.564Z,2.30
2023-02-04T22:38:21.483Z,2.30
2023-02-04T22:40:48.578Z,2.30
2023-02-04T22:43:15.746Z,2.30
2023-02-04T22:45:42.527Z,2.30
2023-02-04T22:48:09.378Z,2.20
2023-02-04T22:50:36.318Z,2.30
2023-02-04T22:53:03.114Z,2.40
2023-02-04T22:55:29.881Z,2.30
2023-02-04T22:57:56.579Z,2.20
2023-02-04T23:00:23.854Z,2.00
2023-02-04T23:02:50.696Z,1.90
2023-02-04T23:05:17.542Z,2.00
2023-02-04T23:07:44.309Z,2.00
2023-02-04T23:10:11.107Z,2.10
2023-02-04T23:12:37.871Z,2.10
2023-02-04T23:15:04.929Z,2.20
2023-02-04T23:17:31.704Z,2.30
2023-02-04T23:19:58.518Z,2.20
2023-02-04T23:22:25.282Z,2.30
2023-02-04T23:24:52.069Z,2.40
2023-02-04T23:27:18.862Z,2.30
2023-02-04T23:29:45.579Z,2.40
2023-02-04T23:32:12.318Z,2.40
2023-02-04T23:34:39.055Z,2.40
2023-02-04T23:37:05.859Z,2.40
2023-02-04T23:39:32.608Z,2.30
2023-02-04T23:41:59.383Z,2.30
2023-02-04T23:44:26.160Z,2.30
2023-02-04T23:46:53.149Z,2.40
2023-02-04T23:49:20.248Z,2.40
2023-02-04T23:51:47.190Z,2.50
2023-02-04T23:54:14.007Z,2.60
2023-02-04T23:56:40.719Z,2.60
2023-02-04T23:59:08.280Z,2.50
